sensor_id;sensor_type;location;lat;lon;timestamp;P1;durP1;ratioP1;P2;durP2;ratioP2
75682;SDS011;64295;44.772;39.872;2022-12-07T00:01:42;11.48;;;5.93;;
75682;SDS011;64295;44.772;39.872;2022-12-07T00:04:10;8.10;;;4.63;;
75682;SDS011;64295;44.772;39.872;2022-12-07T00:06:39;10.43;;;5.20;;
75682;SDS011;64295;44.772;39.872;2022-12-07T00:09:07;9.60;;;5.18;;
75682;SDS011;64295;44.772;39.872;2022-12-07T00:11:35;9.15;;;4.20;;
75682;SDS011;64295;44.772;39.872;2022-12-07T00:14:02;9.18;;;4.00;;
75682;SDS011;64295;44.772;39.872;2022-12-07T00:16:31;9.57;;;4.72;;
75682;SDS011;64295;44.772;39.872;2022-12-07T00:18:58;10.77;;;4.45;;
75682;SDS011;64295;44.772;39.872;2022-12-07T00:21:26;11.05;;;4.93;;
75682;SDS011;64295;44.772;39.872;2022-12-07T00:23:57;9.60;;;4.38;;
75682;SDS011;64295;44.772;39.872;2022-12-07T00:28:54;8.55;;;4.03;;
75682;SDS011;64295;44.772;39.872;2022-12-07T00:31:23;11.95;;;4.88;;
75682;SDS011;64295;44.772;39.872;2022-12-07T00:33:50;7.60;;;4.13;;
75682;SDS011;64295;44.772;39.872;2022-12-07T00:36:18;11.18;;;4.47;;
75682;SDS011;64295;44.772;39.872;2022-12-07T00:38:45;10.57;;;5.15;;
75682;SDS011;64295;44.772;39.872;2022-12-07T00:43:39;10.52;;;4.50;;
75682;SDS011;64295;44.772;39.872;2022-12-07T00:46:06;11.02;;;4.80;;
75682;SDS011;64295;44.772;39.872;2022-12-07T00:48:32;8.45;;;4.45;;
75682;SDS011;64295;44.772;39.872;2022-12-07T00:50:59;9.88;;;5.05;;
75682;SDS011;64295;44.772;39.872;2022-12-07T00:53:25;10.80;;;4.50;;
75682;SDS011;64295;44.772;39.872;2022-12-07T00:55:51;11.75;;;5.32;;
75682;SDS011;64295;44.772;39.872;2022-12-07T00:58:21;11.40;;;6.07;;
75682;SDS011;64295;44.772;39.872;2022-12-07T01:00:48;9.50;;;4.65;;
75682;SDS011;64295;44.772;39.872;2022-12-07T01:03:14;8.65;;;4.57;;
75682;SDS011;64295;44.772;39.872;2022-12-07T01:05:51;12.02;;;5.40;;
75682;SDS011;64295;44.772;39.872;2022-12-07T01:08:18;9.60;;;4.68;;
75682;SDS011;64295;44.772;39.872;2022-12-07T01:10:44;11.55;;;4.47;;
75682;SDS011;64295;44.772;39.872;2022-12-07T01:13:10;12.10;;;4.72;;
75682;SDS011;64295;44.772;39.872;2022-12-07T01:15:39;10.02;;;4.28;;
75682;SDS011;64295;44.772;39.872;2022-12-07T01:18:05;9.75;;;4.68;;
75682;SDS011;64295;44.772;39.872;2022-12-07T01:20:31;7.72;;;4.35;;
75682;SDS011;64295;44.772;39.872;2022-12-07T01:22:57;9.20;;;3.95;;
75682;SDS011;64295;44.772;39.872;2022-12-07T01:25:23;8.30;;;4.90;;
75682;SDS011;64295;44.772;39.872;2022-12-07T01:27:49;9.68;;;4.43;;
75682;SDS011;64295;44.772;39.872;2022-12-07T01:30:15;9.20;;;4.47;;
75682;SDS011;64295;44.772;39.872;2022-12-07T01:32:41;10.23;;;3.90;;
75682;SDS011;64295;44.772;39.872;2022-12-07T01:35:09;13.65;;;4.75;;
75682;SDS011;64295;44.772;39.872;2022-12-07T01:37:37;11.75;;;4.90;;
75682;SDS011;64295;44.772;39.872;2022-12-07T01:40:05;11.55;;;5.30;;
75682;SDS011;64295;44.772;39.872;2022-12-07T01:42:32;12.15;;;5.65;;
75682;SDS011;64295;44.772;39.872;2022-12-07T01:47:43;11.25;;;4.40;;
75682;SDS011;64295;44.772;39.872;2022-12-07T01:50:12;14.60;;;5.65;;
75682;SDS011;64295;44.772;39.872;2022-12-07T01:52:38;10.65;;;4.05;;
75682;SDS011;64295;44.772;39.872;2022-12-07T01:55:08;11.73;;;5.43;;
75682;SDS011;64295;44.772;39.872;2022-12-07T01:57:39;10.52;;;4.97;;
75682;SDS011;64295;44.772;39.872;2022-12-07T02:00:07;11.52;;;4.60;;
75682;SDS011;64295;44.772;39.872;2022-12-07T02:05:34;10.55;;;5.38;;
75682;SDS011;64295;44.772;39.872;2022-12-07T02:08:02;14.13;;;4.72;;
75682;SDS011;64295;44.772;39.872;2022-12-07T02:10:30;19.42;;;7.25;;
75682;SDS011;64295;44.772;39.872;2022-12-07T02:13:18;13.27;;;5.78;;
75682;SDS011;64295;44.772;39.872;2022-12-07T02:16:06;9.82;;;5.60;;
75682;SDS011;64295;44.772;39.872;2022-12-07T02:32:44;13.07;;;4.97;;
75682;SDS011;64295;44.772;39.872;2022-12-07T02:35:39;13.60;;;6.47;;
75682;SDS011;64295;44.772;39.872;2022-12-07T02:40:54;12.80;;;6.35;;
75682;SDS011;64295;44.772;39.872;2022-12-07T02:43:38;13.32;;;5.72;;
75682;SDS011;64295;44.772;39.872;2022-12-07T02:46:10;12.82;;;5.47;;
75682;SDS011;64295;44.772;39.872;2022-12-07T02:48:43;9.90;;;4.93;;
75682;SDS011;64295;44.772;39.872;2022-12-07T02:51:10;10.68;;;5.35;;
75682;SDS011;64295;44.772;39.872;2022-12-07T02:53:38;17.98;;;6.07;;
75682;SDS011;64295;44.772;39.872;2022-12-07T03:08:00;10.73;;;4.57;;
75682;SDS011;64295;44.772;39.872;2022-12-07T03:18:20;11.65;;;4.53;;
75682;SDS011;64295;44.772;39.872;2022-12-07T03:20:49;14.35;;;5.68;;
75682;SDS011;64295;44.772;39.872;2022-12-07T03:23:17;16.35;;;5.43;;
75682;SDS011;64295;44.772;39.872;2022-12-07T03:25:49;8.80;;;5.35;;
75682;SDS011;64295;44.772;39.872;2022-12-07T03:28:20;12.98;;;5.78;;
75682;SDS011;64295;44.772;39.872;2022-12-07T03:31:00;14.82;;;5.65;;
75682;SDS011;64295;44.772;39.872;2022-12-07T03:33:42;16.08;;;6.30;;
75682;SDS011;64295;44.772;39.872;2022-12-07T03:39:00;18.88;;;6.90;;
75682;SDS011;64295;44.772;39.872;2022-12-07T03:41:36;14.90;;;5.43;;
75682;SDS011;64295;44.772;39.872;2022-12-07T03:44:03;10.63;;;4.35;;
75682;SDS011;64295;44.772;39.872;2022-12-07T03:46:34;12.25;;;5.18;;
75682;SDS011;64295;44.772;39.872;2022-12-07T03:54:37;10.60;;;4.90;;
75682;SDS011;64295;44.772;39.872;2022-12-07T03:57:09;11.98;;;5.35;;
75682;SDS011;64295;44.772;39.872;2022-12-07T03:59:37;11.75;;;5.00;;
75682;SDS011;64295;44.772;39.872;2022-12-07T04:02:05;13.43;;;5.50;;
75682;SDS011;64295;44.772;39.872;2022-12-07T04:04:32;14.02;;;5.65;;
75682;SDS011;64295;44.772;39.872;2022-12-07T04:06:59;13.15;;;5.70;;
75682;SDS011;64295;44.772;39.872;2022-12-07T04:09:25;11.63;;;5.38;;
75682;SDS011;64295;44.772;39.872;2022-12-07T04:11:51;14.13;;;5.78;;
75682;SDS011;64295;44.772;39.872;2022-12-07T04:14:17;11.88;;;6.15;;
75682;SDS011;64295;44.772;39.872;2022-12-07T04:16:54;14.35;;;6.32;;
75682;SDS011;64295;44.772;39.872;2022-12-07T04:19:28;12.13;;;6.07;;
75682;SDS011;64295;44.772;39.872;2022-12-07T04:21:56;13.52;;;6.88;;
75682;SDS011;64295;44.772;39.872;2022-12-07T04:24:23;15.65;;;6.63;;
75682;SDS011;64295;44.772;39.872;2022-12-07T04:26:50;13.25;;;5.93;;
75682;SDS011;64295;44.772;39.872;2022-12-07T04:29:16;11.30;;;5.50;;
75682;SDS011;64295;44.772;39.872;2022-12-07T04:31:43;15.68;;;6.88;;
75682;SDS011;64295;44.772;39.872;2022-12-07T04:34:10;16.98;;;6.85;;
75682;SDS011;64295;44.772;39.872;2022-12-07T04:36:37;12.50;;;5.35;;
75682;SDS011;64295;44.772;39.872;2022-12-07T04:39:04;13.85;;;5.85;;
75682;SDS011;64295;44.772;39.872;2022-12-07T04:41:31;15.55;;;6.38;;
75682;SDS011;64295;44.772;39.872;2022-12-07T04:44:00;18.02;;;6.53;;
75682;SDS011;64295;44.772;39.872;2022-12-07T04:46:48;13.85;;;5.88;;
75682;SDS011;64295;44.772;39.872;2022-12-07T04:49:14;18.10;;;5.53;;
75682;SDS011;64295;44.772;39.872;2022-12-07T04:51:41;10.73;;;4.95;;
75682;SDS011;64295;44.772;39.872;2022-12-07T04:54:08;14.38;;;4.82;;
75682;SDS011;64295;44.772;39.872;2022-12-07T04:56:34;18.27;;;6.97;;
75682;SDS011;64295;44.772;39.872;2022-12-07T04:59:00;14.77;;;6.20;;
75682;SDS011;64295;44.772;39.872;2022-12-07T05:01:27;13.45;;;5.97;;
75682;SDS011;64295;44.772;39.872;2022-12-07T05:03:53;14.10;;;5.18;;
75682;SDS011;64295;44.772;39.872;2022-12-07T05:06:19;12.85;;;5.45;;
75682;SDS011;64295;44.772;39.872;2022-12-07T05:08:45;12.07;;;5.75;;
75682;SDS011;64295;44.772;39.872;2022-12-07T05:11:11;15.30;;;6.22;;
75682;SDS011;64295;44.772;39.872;2022-12-07T05:13:58;12.60;;;5.07;;
75682;SDS011;64295;44.772;39.872;2022-12-07T05:16:24;13.25;;;5.38;;
75682;SDS011;64295;44.772;39.872;2022-12-07T05:18:50;13.65;;;5.28;;
75682;SDS011;64295;44.772;39.872;2022-12-07T05:21:15;10.93;;;5.22;;
75682;SDS011;64295;44.772;39.872;2022-12-07T05:23:41;13.27;;;5.85;;
75682;SDS011;64295;44.772;39.872;2022-12-07T05:26:07;14.90;;;5.30;;
75682;SDS011;64295;44.772;39.872;2022-12-07T05:28:33;12.43;;;5.20;;
75682;SDS011;64295;44.772;39.872;2022-12-07T05:30:59;22.05;;;7.63;;
75682;SDS011;64295;44.772;39.872;2022-12-07T05:33:27;21.45;;;7.93;;
75682;SDS011;64295;44.772;39.872;2022-12-07T05:35:53;24.42;;;10.43;;
75682;SDS011;64295;44.772;39.872;2022-12-07T05:38:19;22.42;;;11.70;;
75682;SDS011;64295;44.772;39.872;2022-12-07T05:40:45;43.88;;;15.98;;
75682;SDS011;64295;44.772;39.872;2022-12-07T05:43:10;39.17;;;14.02;;
75682;SDS011;64295;44.772;39.872;2022-12-07T05:45:36;25.98;;;11.32;;
75682;SDS011;64295;44.772;39.872;2022-12-07T05:48:04;20.42;;;9.25;;
75682;SDS011;64295;44.772;39.872;2022-12-07T05:50:30;25.10;;;8.93;;
75682;SDS011;64295;44.772;39.872;2022-12-07T05:53:00;29.85;;;11.05;;
75682;SDS011;64295;44.772;39.872;2022-12-07T05:55:26;32.35;;;11.65;;
75682;SDS011;64295;44.772;39.872;2022-12-07T05:57:51;27.95;;;10.15;;
75682;SDS011;64295;44.772;39.872;2022-12-07T06:00:36;27.40;;;10.18;;
75682;SDS011;64295;44.772;39.872;2022-12-07T06:03:01;18.25;;;6.90;;
75682;SDS011;64295;44.772;39.872;2022-12-07T06:05:27;15.02;;;6.78;;
75682;SDS011;64295;44.772;39.872;2022-12-07T06:07:53;26.85;;;9.50;;
75682;SDS011;64295;44.772;39.872;2022-12-07T06:10:19;17.10;;;7.22;;
75682;SDS011;64295;44.772;39.872;2022-12-07T06:12:45;19.52;;;7.32;;
75682;SDS011;64295;44.772;39.872;2022-12-07T06:15:11;20.88;;;6.93;;
75682;SDS011;64295;44.772;39.872;2022-12-07T06:17:38;18.13;;;7.80;;
75682;SDS011;64295;44.772;39.872;2022-12-07T06:20:07;26.05;;;10.27;;
75682;SDS011;64295;44.772;39.872;2022-12-07T06:22:33;39.25;;;12.15;;
75682;SDS011;64295;44.772;39.872;2022-12-07T06:24:59;44.45;;;13.93;;
75682;SDS011;64295;44.772;39.872;2022-12-07T06:27:25;22.75;;;9.52;;
75682;SDS011;64295;44.772;39.872;2022-12-07T06:29:51;24.83;;;8.13;;
75682;SDS011;64295;44.772;39.872;2022-12-07T06:32:16;16.80;;;7.50;;
75682;SDS011;64295;44.772;39.872;2022-12-07T06:34:42;31.88;;;10.90;;
75682;SDS011;64295;44.772;39.872;2022-12-07T06:37:08;26.75;;;9.98;;
75682;SDS011;64295;44.772;39.872;2022-12-07T06:39:34;19.25;;;8.70;;
75682;SDS011;64295;44.772;39.872;2022-12-07T06:42:00;23.00;;;8.80;;
75682;SDS011;64295;44.772;39.872;2022-12-07T06:44:26;23.92;;;9.52;;
75682;SDS011;64295;44.772;39.872;2022-12-07T06:46:52;18.25;;;10.23;;
75682;SDS011;64295;44.772;39.872;2022-12-07T06:49:18;19.08;;;9.15;;
75682;SDS011;64295;44.772;39.872;2022-12-07T06:51:47;21.23;;;10.43;;
75682;SDS011;64295;44.772;39.872;2022-12-07T06:54:13;15.63;;;6.82;;
75682;SDS011;64295;44.772;39.872;2022-12-07T06:56:40;21.83;;;8.68;;
75682;SDS011;64295;44.772;39.872;2022-12-07T06:59:06;21.25;;;9.13;;
75682;SDS011;64295;44.772;39.872;2022-12-07T07:01:33;19.30;;;8.30;;
75682;SDS011;64295;44.772;39.872;2022-12-07T07:04:00;16.67;;;7.40;;
75682;SDS011;64295;44.772;39.872;2022-12-07T07:06:27;20.02;;;8.50;;
75682;SDS011;64295;44.772;39.872;2022-12-07T07:08:52;19.48;;;8.15;;
75682;SDS011;64295;44.772;39.872;2022-12-07T07:11:18;24.65;;;8.95;;
75682;SDS011;64295;44.772;39.872;2022-12-07T07:13:44;20.05;;;8.18;;
75682;SDS011;64295;44.772;39.872;2022-12-07T07:16:11;20.02;;;8.68;;
75682;SDS011;64295;44.772;39.872;2022-12-07T07:18:37;19.40;;;9.00;;
75682;SDS011;64295;44.772;39.872;2022-12-07T07:21:03;22.77;;;9.68;;
75682;SDS011;64295;44.772;39.872;2022-12-07T07:23:29;22.30;;;12.25;;
75682;SDS011;64295;44.772;39.872;2022-12-07T07:25:55;24.40;;;10.02;;
75682;SDS011;64295;44.772;39.872;2022-12-07T07:28:21;24.65;;;11.05;;
75682;SDS011;64295;44.772;39.872;2022-12-07T07:30:47;38.08;;;12.77;;
75682;SDS011;64295;44.772;39.872;2022-12-07T07:33:13;20.02;;;10.10;;
75682;SDS011;64295;44.772;39.872;2022-12-07T07:35:39;21.15;;;9.55;;
75682;SDS011;64295;44.772;39.872;2022-12-07T07:38:05;24.48;;;9.30;;
75682;SDS011;64295;44.772;39.872;2022-12-07T07:40:31;20.77;;;9.68;;
75682;SDS011;64295;44.772;39.872;2022-12-07T07:42:57;20.05;;;9.27;;
75682;SDS011;64295;44.772;39.872;2022-12-07T07:45:24;23.25;;;10.68;;
75682;SDS011;64295;44.772;39.872;2022-12-07T07:47:51;23.30;;;9.77;;
75682;SDS011;64295;44.772;39.872;2022-12-07T07:50:18;20.35;;;9.77;;
75682;SDS011;64295;44.772;39.872;2022-12-07T07:52:44;26.70;;;10.43;;
75682;SDS011;64295;44.772;39.872;2022-12-07T07:55:11;27.85;;;10.98;;
75682;SDS011;64295;44.772;39.872;2022-12-07T07:57:38;30.13;;;11.32;;
75682;SDS011;64295;44.772;39.872;2022-12-07T08:00:06;30.20;;;11.35;;
75682;SDS011;64295;44.772;39.872;2022-12-07T08:02:37;21.98;;;10.52;;
75682;SDS011;64295;44.772;39.872;2022-12-07T08:05:03;24.02;;;10.13;;
75682;SDS011;64295;44.772;39.872;2022-12-07T08:07:29;19.77;;;9.20;;
75682;SDS011;64295;44.772;39.872;2022-12-07T08:09:55;18.92;;;9.00;;
75682;SDS011;64295;44.772;39.872;2022-12-07T08:12:21;15.18;;;8.60;;
75682;SDS011;64295;44.772;39.872;2022-12-07T08:14:47;14.27;;;7.20;;
75682;SDS011;64295;44.772;39.872;2022-12-07T08:17:13;15.82;;;7.25;;
75682;SDS011;64295;44.772;39.872;2022-12-07T08:19:39;12.23;;;6.47;;
75682;SDS011;64295;44.772;39.872;2022-12-07T08:22:05;16.25;;;6.60;;
75682;SDS011;64295;44.772;39.872;2022-12-07T08:24:34;17.17;;;7.90;;
75682;SDS011;64295;44.772;39.872;2022-12-07T08:27:01;14.18;;;6.97;;
75682;SDS011;64295;44.772;39.872;2022-12-07T08:29:27;16.20;;;7.20;;
75682;SDS011;64295;44.772;39.872;2022-12-07T08:31:53;16.60;;;5.93;;
75682;SDS011;64295;44.772;39.872;2022-12-07T08:34:19;12.18;;;6.88;;
75682;SDS011;64295;44.772;39.872;2022-12-07T08:36:45;12.25;;;6.93;;
75682;SDS011;64295;44.772;39.872;2022-12-07T08:39:11;52.03;;;21.13;;
75682;SDS011;64295;44.772;39.872;2022-12-07T08:41:36;19.10;;;8.82;;
75682;SDS011;64295;44.772;39.872;2022-12-07T08:44:02;13.13;;;6.95;;
75682;SDS011;64295;44.772;39.872;2022-12-07T08:46:40;16.33;;;6.50;;
75682;SDS011;64295;44.772;39.872;2022-12-07T08:49:12;13.32;;;5.28;;
75682;SDS011;64295;44.772;39.872;2022-12-07T08:51:40;13.00;;;5.22;;
75682;SDS011;64295;44.772;39.872;2022-12-07T08:54:08;9.30;;;4.93;;
75682;SDS011;64295;44.772;39.872;2022-12-07T08:56:36;13.50;;;5.88;;
75682;SDS011;64295;44.772;39.872;2022-12-07T08:59:04;11.18;;;5.32;;
75682;SDS011;64295;44.772;39.872;2022-12-07T09:01:30;11.25;;;5.40;;
75682;SDS011;64295;44.772;39.872;2022-12-07T09:03:57;9.23;;;4.80;;
75682;SDS011;64295;44.772;39.872;2022-12-07T09:06:22;13.25;;;5.13;;
75682;SDS011;64295;44.772;39.872;2022-12-07T09:08:50;9.90;;;5.07;;
75682;SDS011;64295;44.772;39.872;2022-12-07T09:11:20;11.73;;;5.03;;
75682;SDS011;64295;44.772;39.872;2022-12-07T09:13:46;11.02;;;4.60;;
75682;SDS011;64295;44.772;39.872;2022-12-07T09:16:12;10.52;;;5.13;;
75682;SDS011;64295;44.772;39.872;2022-12-07T09:18:38;9.15;;;4.85;;
75682;SDS011;64295;44.772;39.872;2022-12-07T09:21:04;8.77;;;4.32;;
75682;SDS011;64295;44.772;39.872;2022-12-07T09:23:30;9.25;;;4.65;;
75682;SDS011;64295;44.772;39.872;2022-12-07T09:25:59;11.27;;;4.63;;
75682;SDS011;64295;44.772;39.872;2022-12-07T09:28:26;12.27;;;4.47;;
75682;SDS011;64295;44.772;39.872;2022-12-07T09:30:52;11.00;;;5.18;;
75682;SDS011;64295;44.772;39.872;2022-12-07T09:33:18;13.73;;;5.40;;
75682;SDS011;64295;44.772;39.872;2022-12-07T09:35:47;12.30;;;5.75;;
75682;SDS011;64295;44.772;39.872;2022-12-07T09:38:14;10.52;;;5.22;;
75682;SDS011;64295;44.772;39.872;2022-12-07T09:40:41;13.65;;;4.95;;
75682;SDS011;64295;44.772;39.872;2022-12-07T09:43:13;7.32;;;4.30;;
75682;SDS011;64295;44.772;39.872;2022-12-07T09:45:44;10.80;;;4.85;;
75682;SDS011;64295;44.772;39.872;2022-12-07T09:48:16;10.15;;;3.72;;
75682;SDS011;64295;44.772;39.872;2022-12-07T09:50:45;9.93;;;4.57;;
75682;SDS011;64295;44.772;39.872;2022-12-07T09:53:14;11.68;;;4.57;;
75682;SDS011;64295;44.772;39.872;2022-12-07T09:55:46;9.73;;;4.30;;
75682;SDS011;64295;44.772;39.872;2022-12-07T09:58:16;9.32;;;4.88;;
75682;SDS011;64295;44.772;39.872;2022-12-07T10:00:47;10.75;;;4.75;;
75682;SDS011;64295;44.772;39.872;2022-12-07T10:03:13;8.73;;;4.40;;
75682;SDS011;64295;44.772;39.872;2022-12-07T10:05:41;13.05;;;5.57;;
75682;SDS011;64295;44.772;39.872;2022-12-07T10:08:13;8.63;;;3.85;;
75682;SDS011;64295;44.772;39.872;2022-12-07T10:10:42;9.70;;;4.88;;
75682;SDS011;64295;44.772;39.872;2022-12-07T10:13:14;9.73;;;4.90;;
75682;SDS011;64295;44.772;39.872;2022-12-07T10:18:34;8.50;;;4.00;;
75682;SDS011;64295;44.772;39.872;2022-12-07T10:21:19;8.90;;;4.15;;
75682;SDS011;64295;44.772;39.872;2022-12-07T10:29:04;9.15;;;4.35;;
75682;SDS011;64295;44.772;39.872;2022-12-07T10:31:45;12.95;;;4.97;;
75682;SDS011;64295;44.772;39.872;2022-12-07T10:34:24;8.40;;;3.97;;
75682;SDS011;64295;44.772;39.872;2022-12-07T10:36:52;10.50;;;3.97;;
75682;SDS011;64295;44.772;39.872;2022-12-07T10:39:22;11.68;;;5.03;;
75682;SDS011;64295;44.772;39.872;2022-12-07T10:44:26;11.20;;;4.40;;
75682;SDS011;64295;44.772;39.872;2022-12-07T10:47:18;9.85;;;5.18;;
75682;SDS011;64295;44.772;39.872;2022-12-07T10:52:47;8.48;;;4.15;;
75682;SDS011;64295;44.772;39.872;2022-12-07T10:55:45;10.25;;;4.53;;
75682;SDS011;64295;44.772;39.872;2022-12-07T11:04:31;8.45;;;3.95;;
75682;SDS011;64295;44.772;39.872;2022-12-07T11:07:11;7.55;;;4.18;;
75682;SDS011;64295;44.772;39.872;2022-12-07T11:18:24;8.27;;;4.25;;
75682;SDS011;64295;44.772;39.872;2022-12-07T11:37:36;10.40;;;4.88;;
75682;SDS011;64295;44.772;39.872;2022-12-07T11:40:15;13.45;;;6.22;;
75682;SDS011;64295;44.772;39.872;2022-12-07T11:43:04;24.70;;;9.02;;
75682;SDS011;64295;44.772;39.872;2022-12-07T11:46:02;21.88;;;8.98;;
75682;SDS011;64295;44.772;39.872;2022-12-07T11:51:02;10.80;;;4.97;;
75682;SDS011;64295;44.772;39.872;2022-12-07T11:53:32;14.27;;;6.05;;
75682;SDS011;64295;44.772;39.872;2022-12-07T11:56:12;8.82;;;4.93;;
75682;SDS011;64295;44.772;39.872;2022-12-07T12:04:45;11.95;;;4.55;;
75682;SDS011;64295;44.772;39.872;2022-12-07T12:06:38;11.95;;;4.63;;
75682;SDS011;64295;44.772;39.872;2022-12-07T12:09:16;10.23;;;4.07;;
75682;SDS011;64295;44.772;39.872;2022-12-07T12:22:32;14.93;;;5.93;;
75682;SDS011;64295;44.772;39.872;2022-12-07T12:25:03;14.32;;;4.93;;
75682;SDS011;64295;44.772;39.872;2022-12-07T12:27:36;11.32;;;5.65;;
75682;SDS011;64295;44.772;39.872;2022-12-07T12:30:05;20.75;;;10.48;;
75682;SDS011;64295;44.772;39.872;2022-12-07T12:32:49;24.13;;;10.57;;
75682;SDS011;64295;44.772;39.872;2022-12-07T12:35:29;19.88;;;9.25;;
75682;SDS011;64295;44.772;39.872;2022-12-07T12:40:53;12.80;;;5.55;;
75682;SDS011;64295;44.772;39.872;2022-12-07T12:46:45;11.18;;;4.55;;
75682;SDS011;64295;44.772;39.872;2022-12-07T12:51:53;11.15;;;5.00;;
75682;SDS011;64295;44.772;39.872;2022-12-07T12:54:29;13.63;;;6.05;;
75682;SDS011;64295;44.772;39.872;2022-12-07T13:02:21;10.18;;;4.53;;
75682;SDS011;64295;44.772;39.872;2022-12-07T13:15:33;11.93;;;4.88;;
75682;SDS011;64295;44.772;39.872;2022-12-07T13:18:02;10.55;;;4.43;;
75682;SDS011;64295;44.772;39.872;2022-12-07T13:23:13;21.67;;;8.65;;
75682;SDS011;64295;44.772;39.872;2022-12-07T13:25:48;29.52;;;12.25;;
75682;SDS011;64295;44.772;39.872;2022-12-07T13:28:32;24.67;;;11.55;;
75682;SDS011;64295;44.772;39.872;2022-12-07T13:33:30;20.23;;;8.57;;
75682;SDS011;64295;44.772;39.872;2022-12-07T13:35:56;14.88;;;7.78;;
75682;SDS011;64295;44.772;39.872;2022-12-07T13:38:29;14.57;;;6.32;;
75682;SDS011;64295;44.772;39.872;2022-12-07T13:41:01;14.80;;;6.53;;
75682;SDS011;64295;44.772;39.872;2022-12-07T13:43:28;17.10;;;7.53;;
75682;SDS011;64295;44.772;39.872;2022-12-07T13:45:58;28.23;;;11.32;;
75682;SDS011;64295;44.772;39.872;2022-12-07T13:51:20;31.88;;;13.07;;
75682;SDS011;64295;44.772;39.872;2022-12-07T13:53:50;15.73;;;7.00;;
75682;SDS011;64295;44.772;39.872;2022-12-07T13:56:20;13.20;;;5.38;;
75682;SDS011;64295;44.772;39.872;2022-12-07T13:58:48;39.95;;;20.85;;
75682;SDS011;64295;44.772;39.872;2022-12-07T14:01:14;16.90;;;7.47;;
75682;SDS011;64295;44.772;39.872;2022-12-07T14:03:40;26.98;;;12.05;;
75682;SDS011;64295;44.772;39.872;2022-12-07T14:06:27;22.40;;;10.32;;
75682;SDS011;64295;44.772;39.872;2022-12-07T14:11:46;52.75;;;21.77;;
75682;SDS011;64295;44.772;39.872;2022-12-07T14:14:19;24.65;;;11.45;;
75682;SDS011;64295;44.772;39.872;2022-12-07T14:16:57;28.52;;;11.32;;
75682;SDS011;64295;44.772;39.872;2022-12-07T14:19:40;25.58;;;9.27;;
75682;SDS011;64295;44.772;39.872;2022-12-07T14:22:57;11.57;;;5.82;;
75682;SDS011;64295;44.772;39.872;2022-12-07T14:25:22;13.20;;;6.30;;
75682;SDS011;64295;44.772;39.872;2022-12-07T14:28:00;10.70;;;5.32;;
75682;SDS011;64295;44.772;39.872;2022-12-07T14:30:27;12.23;;;5.15;;
75682;SDS011;64295;44.772;39.872;2022-12-07T14:32:59;12.98;;;4.95;;
75682;SDS011;64295;44.772;39.872;2022-12-07T14:35:27;9.20;;;3.97;;
75682;SDS011;64295;44.772;39.872;2022-12-07T14:37:54;13.07;;;5.72;;
75682;SDS011;64295;44.772;39.872;2022-12-07T14:40:21;14.38;;;6.32;;
75682;SDS011;64295;44.772;39.872;2022-12-07T14:43:00;15.63;;;7.35;;
75682;SDS011;64295;44.772;39.872;2022-12-07T14:45:28;29.45;;;13.52;;
75682;SDS011;64295;44.772;39.872;2022-12-07T14:47:54;23.73;;;10.48;;
75682;SDS011;64295;44.772;39.872;2022-12-07T14:50:20;65.10;;;20.90;;
75682;SDS011;64295;44.772;39.872;2022-12-07T14:52:48;99.53;;;35.00;;
75682;SDS011;64295;44.772;39.872;2022-12-07T14:55:20;32.15;;;13.05;;
75682;SDS011;64295;44.772;39.872;2022-12-07T14:57:51;21.33;;;9.18;;
75682;SDS011;64295;44.772;39.872;2022-12-07T15:00:18;24.92;;;12.85;;
75682;SDS011;64295;44.772;39.872;2022-12-07T15:02:45;19.30;;;8.88;;
75682;SDS011;64295;44.772;39.872;2022-12-07T15:05:12;13.95;;;7.97;;
75682;SDS011;64295;44.772;39.872;2022-12-07T15:07:39;10.30;;;5.22;;
75682;SDS011;64295;44.772;39.872;2022-12-07T15:10:05;11.07;;;5.07;;
75682;SDS011;64295;44.772;39.872;2022-12-07T15:12:36;12.38;;;6.35;;
75682;SDS011;64295;44.772;39.872;2022-12-07T15:15:02;13.23;;;5.30;;
75682;SDS011;64295;44.772;39.872;2022-12-07T15:17:29;11.35;;;5.80;;
75682;SDS011;64295;44.772;39.872;2022-12-07T15:19:55;13.13;;;4.75;;
75682;SDS011;64295;44.772;39.872;2022-12-07T15:22:21;10.48;;;4.70;;
75682;SDS011;64295;44.772;39.872;2022-12-07T15:24:47;9.80;;;4.97;;
75682;SDS011;64295;44.772;39.872;2022-12-07T15:27:12;12.82;;;5.50;;
75682;SDS011;64295;44.772;39.872;2022-12-07T15:29:38;12.98;;;5.88;;
75682;SDS011;64295;44.772;39.872;2022-12-07T15:32:04;12.95;;;5.72;;
75682;SDS011;64295;44.772;39.872;2022-12-07T15:34:30;13.20;;;5.65;;
75682;SDS011;64295;44.772;39.872;2022-12-07T15:36:57;10.95;;;5.20;;
75682;SDS011;64295;44.772;39.872;2022-12-07T15:39:23;8.57;;;4.57;;
75682;SDS011;64295;44.772;39.872;2022-12-07T15:41:49;10.02;;;5.30;;
75682;SDS011;64295;44.772;39.872;2022-12-07T15:44:15;10.75;;;5.15;;
75682;SDS011;64295;44.772;39.872;2022-12-07T15:46:59;10.48;;;4.97;;
75682;SDS011;64295;44.772;39.872;2022-12-07T15:49:26;12.02;;;5.60;;
75682;SDS011;64295;44.772;39.872;2022-12-07T15:51:52;11.82;;;6.93;;
75682;SDS011;64295;44.772;39.872;2022-12-07T15:54:28;12.32;;;6.70;;
75682;SDS011;64295;44.772;39.872;2022-12-07T15:56:58;12.25;;;6.78;;
75682;SDS011;64295;44.772;39.872;2022-12-07T15:59:25;13.65;;;5.65;;
75682;SDS011;64295;44.772;39.872;2022-12-07T16:01:51;11.80;;;6.22;;
75682;SDS011;64295;44.772;39.872;2022-12-07T16:04:21;16.00;;;6.15;;
75682;SDS011;64295;44.772;39.872;2022-12-07T16:06:47;13.85;;;6.60;;
75682;SDS011;64295;44.772;39.872;2022-12-07T16:09:13;10.30;;;5.57;;
75682;SDS011;64295;44.772;39.872;2022-12-07T16:11:39;10.02;;;5.43;;
75682;SDS011;64295;44.772;39.872;2022-12-07T16:14:05;15.02;;;7.00;;
75682;SDS011;64295;44.772;39.872;2022-12-07T16:16:31;16.00;;;6.50;;
75682;SDS011;64295;44.772;39.872;2022-12-07T16:18:57;25.63;;;12.80;;
75682;SDS011;64295;44.772;39.872;2022-12-07T16:21:23;13.48;;;6.43;;
75682;SDS011;64295;44.772;39.872;2022-12-07T16:23:50;11.30;;;5.93;;
75682;SDS011;64295;44.772;39.872;2022-12-07T16:26:17;11.02;;;4.90;;
75682;SDS011;64295;44.772;39.872;2022-12-07T16:28:45;9.98;;;5.25;;
75682;SDS011;64295;44.772;39.872;2022-12-07T16:31:14;9.18;;;4.47;;
75682;SDS011;64295;44.772;39.872;2022-12-07T16:33:42;11.93;;;5.07;;
75682;SDS011;64295;44.772;39.872;2022-12-07T16:36:09;12.45;;;5.43;;
75682;SDS011;64295;44.772;39.872;2022-12-07T16:38:41;13.90;;;6.45;;
75682;SDS011;64295;44.772;39.872;2022-12-07T16:41:08;11.32;;;5.93;;
75682;SDS011;64295;44.772;39.872;2022-12-07T16:43:35;14.18;;;5.72;;
75682;SDS011;64295;44.772;39.872;2022-12-07T16:48:37;10.32;;;4.55;;
75682;SDS011;64295;44.772;39.872;2022-12-07T16:51:07;12.38;;;5.30;;
75682;SDS011;64295;44.772;39.872;2022-12-07T16:53:35;10.75;;;5.05;;
75682;SDS011;64295;44.772;39.872;2022-12-07T16:56:02;17.67;;;9.43;;
75682;SDS011;64295;44.772;39.872;2022-12-07T16:58:28;23.35;;;11.43;;
75682;SDS011;64295;44.772;39.872;2022-12-07T17:00:56;14.52;;;5.85;;
75682;SDS011;64295;44.772;39.872;2022-12-07T17:03:22;12.65;;;5.90;;
75682;SDS011;64295;44.772;39.872;2022-12-07T17:05:48;11.02;;;5.30;;
75682;SDS011;64295;44.772;39.872;2022-12-07T17:08:14;13.02;;;5.85;;
75682;SDS011;64295;44.772;39.872;2022-12-07T17:10:41;11.40;;;4.80;;